Time;durP1;ratioP1;P1;durP2;ratioP2;P2;SDS_P1;SDS_P2;PMS_P1;PMS_P2;Temp;Humidity;BMP_temperature;BMP_pressure;BME280_temperature;BME280_humidity;BME280_pressure;Samples;Min_cycle;Max_cycle;Signal;HPM_P1;HPM_P2
2022/03/20 00:01:38;;;;;;;;;;;21.80;38.20;;;;;;6327282;27;19934;-50
2022/03/20 00:04:40;;;;;;;;;;;21.60;37.70;;;;;;6326345;27;19922;-51
2022/03/20 00:07:41;;;;;;;;;;;21.50;37.60;;;;;;6327725;27;20024;-52
2022/03/20 00:10:44;;;;;;;;;;;21.80;37.90;;;;;;6326875;27;20043;-48
2022/03/20 00:13:45;;;;;;;;;;;21.70;38.00;;;;;;6330734;27;19975;-55
2022/03/20 00:16:48;;;;;;;;;;;21.30;37.50;;;;;;6327361;27;19923;-51
2022/03/20 00:19:50;;;;;;;;;;;21.50;38.00;;;;;;6323201;27;19924;-52
2022/03/20 00:22:52;;;;;;;;;;;21.60;37.60;;;;;;6308590;27;19979;-54
2022/03/20 00:25:53;;;;;;;;;;;21.90;38.20;;;;;;6323834;27;20015;-54
2022/03/20 00:28:55;;;;;;;;;;;21.60;38.10;;;;;;6327420;27;20855;-54
2022/03/20 00:31:57;;;;;;;;;;;21.30;38.00;;;;;;6314180;27;20118;-54
2022/03/20 00:34:59;;;;;;;;;;;21.70;37.90;;;;;;6331742;27;20755;-53
2022/03/20 00:38:01;;;;;;;;;;;22.30;38.40;;;;;;6328633;27;21053;-52
2022/03/20 00:41:02;;;;;;;;;;;21.90;38.20;;;;;;6331029;27;21929;-58
2022/03/20 00:44:04;;;;;;;;;;;21.30;38.00;;;;;;6329838;27;20015;-54
2022/03/20 00:47:06;;;;;;;;;;;21.40;37.70;;;;;;6334097;27;20449;-49
2022/03/20 00:50:08;;;;;;;;;;;21.90;38.10;;;;;;6323468;27;19966;-52
2022/03/20 00:53:10;;;;;;;;;;;21.90;38.00;;;;;;6327235;27;20122;-51
2022/03/20 00:56:12;;;;;;;;;;;21.80;37.90;;;;;;6326529;27;19927;-55
2022/03/20 00:59:14;;;;;;;;;;;21.50;38.00;;;;;;6329373;27;19930;-51
2022/03/20 01:02:16;;;;;;;;;;;21.70;38.50;;;;;;6332283;27;20054;-53
2022/03/20 01:05:17;;;;;;;;;;;21.70;38.20;;;;;;6334720;27;20471;-53
2022/03/20 01:08:19;;;;;;;;;;;21.40;38.30;;;;;;6317936;27;20617;-50
2022/03/20 01:11:20;;;;;;;;;;;22.20;38.40;;;;;;6313805;27;19927;-51
2022/03/20 01:14:22;;;;;;;;;;;21.20;38.10;;;;;;6325696;27;20009;-53
2022/03/20 01:17:24;;;;;;;;;;;21.70;38.50;;;;;;6329414;27;19931;-49
2022/03/20 01:20:25;;;;;;;;;;;21.30;38.10;;;;;;6326397;27;20107;-50
2022/03/20 01:23:27;;;;;;;;;;;21.10;38.20;;;;;;6323458;27;19927;-52
2022/03/20 01:26:29;;;;;;;;;;;22.10;39.00;;;;;;6327666;27;19927;-51
2022/03/20 01:29:30;;;;;;;;;;;21.50;38.50;;;;;;6326044;27;19934;-51
2022/03/20 01:32:32;;;;;;;;;;;21.30;38.30;;;;;;6328594;27;20042;-52
2022/03/20 01:35:35;;;;;;;;;;;21.30;38.30;;;;;;6310096;27;19937;-51
2022/03/20 01:38:36;;;;;;;;;;;21.30;38.30;;;;;;6311205;27;19931;-51
2022/03/20 01:41:38;;;;;;;;;;;21.30;38.30;;;;;;6327301;27;20034;-53
2022/03/20 01:44:40;;;;;;;;;;;21.70;38.70;;;;;;6335261;27;20848;-50
2022/03/20 01:47:42;;;;;;;;;;;21.20;38.30;;;;;;6333138;27;19966;-53
2022/03/20 01:50:43;;;;;;;;;;;21.10;38.20;;;;;;6330781;27;19931;-53
2022/03/20 01:53:44;;;;;;;;;;;21.20;38.40;;;;;;6330438;27;20655;-51
2022/03/20 01:56:46;;;;;;;;;;;21.70;38.50;;;;;;6333059;27;19938;-50
2022/03/20 01:59:48;;;;;;;;;;;21.60;38.60;;;;;;6335212;27;19924;-55
2022/03/20 02:02:51;;;;;;;;;;;21.10;38.30;;;;;;6313553;27;19923;-51
2022/03/20 02:05:53;;;;;;;;;;;21.20;38.30;;;;;;6295614;27;19930;-55
2022/03/20 02:08:55;;;;;;;;;;;21.20;38.30;;;;;;6311435;27;19923;-52
2022/03/20 02:11:57;;;;;;;;;;;21.30;38.40;;;;;;6330634;27;19931;-49
2022/03/20 02:15:00;;;;;;;;;;;21.20;38.30;;;;;;6332321;27;20849;-53
2022/03/20 02:18:02;;;;;;;;;;;21.60;38.50;;;;;;6309243;27;20103;-53
2022/03/20 02:21:04;;;;;;;;;;;21.20;38.20;;;;;;6332687;27;20042;-54
2022/03/20 02:24:18;;;;;;;;;;;21.60;38.40;;;;;;6327391;27;19923;-52
2022/03/20 02:27:22;;;;;;;;;;;21.90;38.60;;;;;;6332149;27;20965;-50
2022/03/20 02:30:30;;;;;;;;;;;21.20;38.20;;;;;;6332983;27;19926;-53
2022/03/20 02:33:31;;;;;;;;;;;21.80;38.00;;;;;;6334751;27;19927;-53
2022/03/20 02:36:36;;;;;;;;;;;21.20;38.40;;;;;;6333155;27;19927;-54
2022/03/20 02:39:38;;;;;;;;;;;21.70;38.60;;;;;;6330660;27;19923;-51
2022/03/20 02:42:40;;;;;;;;;;;21.60;38.60;;;;;;6329462;27;20038;-53
2022/03/20 02:45:43;;;;;;;;;;;21.40;38.50;;;;;;6334881;27;19935;-50
2022/03/20 02:48:45;;;;;;;;;;;21.30;38.40;;;;;;6333064;27;20024;-53
2022/03/20 02:51:47;;;;;;;;;;;21.70;38.60;;;;;;6329132;27;20210;-50
2022/03/20 02:54:48;;;;;;;;;;;21.30;38.40;;;;;;6320401;27;20002;-49
2022/03/20 02:57:50;;;;;;;;;;;22.00;39.10;;;;;;6321326;27;20151;-52
2022/03/20 03:00:52;;;;;;;;;;;21.70;38.70;;;;;;6306357;27;19927;-52
2022/03/20 03:03:54;;;;;;;;;;;21.90;38.90;;;;;;6323983;27;20701;-52
2022/03/20 03:07:01;;;;;;;;;;;21.50;38.70;;;;;;6321595;27;19993;-51
2022/03/20 03:13:19;;;;;;;;;;;21.50;38.60;;;;;;6318810;27;20762;-52
2022/03/20 03:16:20;;;;;;;;;;;21.30;38.50;;;;;;6322721;27;19935;-52
2022/03/20 03:19:23;;;;;;;;;;;21.20;38.20;;;;;;6322193;27;20264;-49
2022/03/20 03:22:26;;;;;;;;;;;21.50;38.70;;;;;;6321601;27;20054;-49
2022/03/20 03:25:27;;;;;;;;;;;21.20;38.50;;;;;;6302065;27;20203;-49
2022/03/20 03:28:34;;;;;;;;;;;21.90;38.90;;;;;;6320407;27;20265;-50
2022/03/20 03:31:35;;;;;;;;;;;21.30;38.60;;;;;;6325353;27;19931;-49
2022/03/20 03:37:50;;;;;;;;;;;21.80;38.90;;;;;;6324838;27;20611;-48
2022/03/20 03:40:51;;;;;;;;;;;21.20;38.50;;;;;;6321891;27;20222;-51
2022/03/20 03:43:53;;;;;;;;;;;21.00;38.30;;;;;;6320605;27;19934;-52
2022/03/20 03:46:57;;;;;;;;;;;21.40;38.60;;;;;;6324551;27;20450;-52
2022/03/20 03:49:59;;;;;;;;;;;21.60;38.80;;;;;;6323495;27;19966;-52
2022/03/20 03:53:03;;;;;;;;;;;21.40;38.70;;;;;;6323066;27;19935;-52
2022/03/20 03:56:04;;;;;;;;;;;21.50;38.70;;;;;;6323508;27;19926;-49
2022/03/20 03:59:06;;;;;;;;;;;21.80;38.70;;;;;;6321426;27;20033;-51
2022/03/20 04:02:07;;;;;;;;;;;21.70;38.90;;;;;;6323122;27;20529;-52
2022/03/20 04:05:09;;;;;;;;;;;21.60;38.90;;;;;;6304796;27;20381;-49
2022/03/20 04:08:15;;;;;;;;;;;21.00;38.40;;;;;;6319720;27;20884;-48
2022/03/20 04:11:16;;;;;;;;;;;21.10;38.50;;;;;;6325439;27;19931;-50
2022/03/20 04:14:17;;;;;;;;;;;21.10;38.30;;;;;;6319034;27;19931;-48
2022/03/20 04:17:19;;;;;;;;;;;21.60;39.10;;;;;;6322429;27;20557;-51
2022/03/20 04:20:20;;;;;;;;;;;21.30;38.90;;;;;;6326474;27;20535;-51
2022/03/20 04:26:39;;;;;;;;;;;21.50;38.80;;;;;;6320833;27;19927;-49
2022/03/20 04:29:40;;;;;;;;;;;21.60;38.90;;;;;;6324027;27;20078;-48
2022/03/20 04:32:43;;;;;;;;;;;21.50;38.90;;;;;;6323764;27;20741;-49
2022/03/20 04:35:45;;;;;;;;;;;21.50;38.80;;;;;;6323514;27;20272;-51
2022/03/20 04:38:47;;;;;;;;;;;21.40;38.80;;;;;;6321740;27;20297;-51
2022/03/20 04:41:48;;;;;;;;;;;21.10;38.50;;;;;;6321726;27;20415;-51
2022/03/20 04:44:50;;;;;;;;;;;21.40;38.50;;;;;;6323580;27;19980;-50
2022/03/20 05:00:49;;;;;;;;;;;21.30;38.60;;;;;;6323865;27;20427;-52
2022/03/20 05:03:51;;;;;;;;;;;21.00;38.50;;;;;;6326372;27;19931;-51
2022/03/20 05:06:52;;;;;;;;;;;21.20;38.80;;;;;;6322140;27;19927;-47
2022/03/20 05:16:25;;;;;;;;;;;21.00;38.20;;;;;;6307285;27;19998;-50
2022/03/20 05:19:27;;;;;;;;;;;21.00;38.40;;;;;;6322281;27;20418;-49
2022/03/20 05:22:29;;;;;;;;;;;21.30;38.60;;;;;;6318844;27;20034;-51
2022/03/20 05:25:31;;;;;;;;;;;21.10;38.40;;;;;;6319301;27;19927;-51
2022/03/20 05:28:33;;;;;;;;;;;21.10;38.40;;;;;;6316585;27;19953;-52
2022/03/20 05:31:35;;;;;;;;;;;21.50;38.40;;;;;;6320033;27;20963;-50
2022/03/20 05:34:37;;;;;;;;;;;21.50;38.80;;;;;;6320891;27;20496;-53
2022/03/20 05:37:38;;;;;;;;;;;21.60;38.10;;;;;;6317306;27;19927;-50
2022/03/20 05:40:41;;;;;;;;;;;21.20;38.60;;;;;;6317128;27;20297;-48
2022/03/20 05:43:42;;;;;;;;;;;21.70;39.30;;;;;;6318072;27;20872;-51
2022/03/20 05:46:46;;;;;;;;;;;21.60;38.70;;;;;;6320316;27;20752;-51
2022/03/20 05:49:47;;;;;;;;;;;21.00;38.20;;;;;;6318920;27;20430;-51
2022/03/20 05:52:48;;;;;;;;;;;21.20;38.50;;;;;;6316382;27;20056;-50
2022/03/20 05:59:06;;;;;;;;;;;21.30;38.40;;;;;;6317640;27;20045;-52
2022/03/20 06:02:09;;;;;;;;;;;21.50;38.60;;;;;;6317050;27;20140;-48
2022/03/20 06:05:11;;;;;;;;;;;21.40;38.20;;;;;;6318210;27;20224;-52
2022/03/20 06:08:12;;;;;;;;;;;21.30;38.30;;;;;;6298804;27;19933;-54
2022/03/20 06:11:15;;;;;;;;;;;21.40;38.40;;;;;;6318891;27;19931;-49
2022/03/20 06:14:17;;;;;;;;;;;21.00;38.20;;;;;;6296123;27;20741;-49
2022/03/20 06:17:18;;;;;;;;;;;21.30;38.30;;;;;;6311199;27;20217;-51
2022/03/20 06:20:20;;;;;;;;;;;21.50;38.60;;;;;;6318536;27;19937;-50
2022/03/20 06:23:22;;;;;;;;;;;21.20;38.30;;;;;;6300234;27;20054;-48
2022/03/20 06:26:24;;;;;;;;;;;21.20;38.40;;;;;;6313441;27;20120;-54
2022/03/20 06:29:26;;;;;;;;;;;21.10;38.20;;;;;;6316621;27;20253;-53
2022/03/20 06:32:27;;;;;;;;;;;21.00;38.20;;;;;;6318154;27;20219;-52
2022/03/20 06:35:29;;;;;;;;;;;21.40;38.40;;;;;;6318150;27;20062;-52
2022/03/20 06:38:31;;;;;;;;;;;20.80;38.10;;;;;;6319189;27;20385;-51
2022/03/20 06:41:33;;;;;;;;;;;21.20;38.30;;;;;;6320830;27;19931;-52
2022/03/20 06:44:34;;;;;;;;;;;21.40;38.20;;;;;;6318186;27;20286;-50
2022/03/20 06:47:36;;;;;;;;;;;21.20;38.10;;;;;;6317769;27;20120;-46
2022/03/20 06:50:37;;;;;;;;;;;21.80;38.60;;;;;;6320753;27;20759;-46
2022/03/20 06:53:39;;;;;;;;;;;21.40;38.50;;;;;;6298521;27;19957;-48
2022/03/20 06:56:41;;;;;;;;;;;21.20;38.40;;;;;;6309808;27;19931;-46
2022/03/20 06:59:43;;;;;;;;;;;20.90;38.00;;;;;;6314551;27;19989;-45
2022/03/20 07:02:44;;;;;;;;;;;21.60;38.50;;;;;;6306243;27;20178;-49
2022/03/20 07:05:46;;;;;;;;;;;21.20;38.30;;;;;;6306473;27;19967;-46
2022/03/20 07:08:47;;;;;;;;;;;21.30;38.50;;;;;;6315268;27;20600;-46
2022/03/20 07:11:49;;;;;;;;;;;21.50;38.40;;;;;;6316974;27;20037;-50
2022/03/20 07:14:50;;;;;;;;;;;21.10;38.20;;;;;;6320184;27;20132;-51
2022/03/20 07:17:52;;;;;;;;;;;20.70;37.90;;;;;;6316279;27;20677;-48
2022/03/20 07:20:55;;;;;;;;;;;21.30;38.40;;;;;;6317803;27;20461;-48
2022/03/20 07:23:57;;;;;;;;;;;21.40;38.30;;;;;;6297127;27;20489;-45
2022/03/20 07:30:15;;;;;;;;;;;21.30;38.40;;;;;;6314796;27;20418;-49
2022/03/20 07:33:17;;;;;;;;;;;21.70;38.60;;;;;;6316488;27;19977;-47
2022/03/20 07:36:28;;;;;;;;;;;21.20;38.50;;;;;;6317588;27;20127;-48
2022/03/20 07:39:30;;;;;;;;;;;20.90;38.20;;;;;;6314751;27;19927;-46
2022/03/20 07:42:32;;;;;;;;;;;21.10;38.30;;;;;;6315252;27;20218;-49
2022/03/20 07:45:35;;;;;;;;;;;20.90;38.20;;;;;;6315981;27;20179;-49
2022/03/20 07:48:37;;;;;;;;;;;21.20;38.30;;;;;;6315948;27;20085;-48
2022/03/20 07:51:38;;;;;;;;;;;20.70;38.10;;;;;;6314080;27;20717;-50
2022/03/20 07:54:40;;;;;;;;;;;21.00;38.30;;;;;;6313318;27;19953;-49
2022/03/20 07:57:42;;;;;;;;;;;21.40;38.40;;;;;;6316119;27;19969;-48
2022/03/20 08:00:43;;;;;;;;;;;20.70;38.00;;;;;;6317335;27;20046;-47
2022/03/20 08:03:45;;;;;;;;;;;21.40;38.30;;;;;;6311459;27;20156;-49
2022/03/20 08:06:46;;;;;;;;;;;21.40;38.30;;;;;;6316233;27;20835;-47
2022/03/20 08:09:47;;;;;;;;;;;21.30;38.20;;;;;;6311650;27;20049;-52
2022/03/20 08:12:49;;;;;;;;;;;21.30;38.30;;;;;;6316692;27;20478;-50
2022/03/20 08:15:51;;;;;;;;;;;21.20;38.20;;;;;;6314903;27;20062;-46
2022/03/20 08:18:52;;;;;;;;;;;21.40;37.90;;;;;;6315888;27;20148;-47
2022/03/20 08:21:56;;;;;;;;;;;21.30;38.20;;;;;;6316981;27;20367;-46
2022/03/20 08:24:58;;;;;;;;;;;21.20;38.20;;;;;;6295008;27;19926;-45
2022/03/20 08:28:00;;;;;;;;;;;21.60;38.30;;;;;;6314793;27;19927;-48
2022/03/20 08:31:01;;;;;;;;;;;21.70;38.20;;;;;;6320478;27;21156;-49
2022/03/20 08:34:04;;;;;;;;;;;21.90;38.50;;;;;;6302857;27;20160;-49
2022/03/20 08:37:05;;;;;;;;;;;21.30;38.00;;;;;;6318597;27;20009;-46
2022/03/20 08:40:07;;;;;;;;;;;21.40;38.20;;;;;;6316208;27;20556;-48
2022/03/20 08:43:15;;;;;;;;;;;21.60;38.00;;;;;;6306190;27;19931;-44
2022/03/20 08:46:16;;;;;;;;;;;21.20;37.80;;;;;;6312478;27;20063;-50
2022/03/20 08:49:19;;;;;;;;;;;21.30;37.90;;;;;;6316891;27;19931;-49
2022/03/20 08:52:20;;;;;;;;;;;21.50;37.80;;;;;;6315320;27;20480;-49
2022/03/20 08:55:22;;;;;;;;;;;21.20;37.80;;;;;;6318368;27;20107;-47
2022/03/20 08:58:24;;;;;;;;;;;21.10;37.80;;;;;;6319596;27;19931;-46
2022/03/20 09:01:26;;;;;;;;;;;21.50;37.80;;;;;;6321400;27;20180;-47
2022/03/20 09:04:27;;;;;;;;;;;21.80;38.60;;;;;;6316113;27;20264;-49
2022/03/20 09:07:29;;;;;;;;;;;21.30;37.80;;;;;;6319161;27;20948;-48
2022/03/20 09:10:30;;;;;;;;;;;21.00;37.40;;;;;;6321375;27;20243;-50
2022/03/20 09:13:32;;;;;;;;;;;21.50;37.70;;;;;;6316294;27;20046;-45
2022/03/20 09:19:49;;;;;;;;;;;21.30;37.30;;;;;;6320201;27;20031;-45
2022/03/20 09:22:51;;;;;;;;;;;21.50;37.20;;;;;;6302880;27;20339;-45
2022/03/20 09:25:53;;;;;;;;;;;21.70;37.40;;;;;;6304325;27;20334;-46
2022/03/20 09:28:56;;;;;;;;;;;21.90;37.30;;;;;;6315132;27;20202;-47
2022/03/20 09:31:57;;;;;;;;;;;21.70;37.00;;;;;;6318956;27;19967;-48
2022/03/20 09:34:58;;;;;;;;;;;22.10;36.50;;;;;;6297413;27;20352;-46
2022/03/20 09:38:01;;;;;;;;;;;21.70;36.90;;;;;;6317957;27;20283;-48
2022/03/20 09:41:07;;;;;;;;;;;21.70;36.70;;;;;;6318882;27;20133;-49
2022/03/20 09:44:10;;;;;;;;;;;21.90;36.80;;;;;;6298693;27;20008;-47
2022/03/20 09:47:11;;;;;;;;;;;21.70;36.50;;;;;;6317106;27;20042;-49
2022/03/20 09:50:14;;;;;;;;;;;22.30;36.70;;;;;;6299401;27;20333;-50
2022/03/20 09:53:15;;;;;;;;;;;21.50;36.20;;;;;;6288152;27;19931;-48
2022/03/20 09:56:16;;;;;;;;;;;21.60;36.40;;;;;;6315124;27;20124;-49
2022/03/20 09:59:19;;;;;;;;;;;22.10;36.70;;;;;;6317916;27;20571;-47
2022/03/20 10:02:20;;;;;;;;;;;21.70;36.10;;;;;;6314510;27;20243;-47
2022/03/20 10:05:22;;;;;;;;;;;21.90;36.00;;;;;;6315128;27;20164;-49
2022/03/20 10:08:24;;;;;;;;;;;21.90;36.10;;;;;;6297348;27;20368;-47
2022/03/20 10:11:26;;;;;;;;;;;22.00;36.30;;;;;;6318610;27;20175;-50
2022/03/20 10:14:29;;;;;;;;;;;21.90;36.10;;;;;;6298955;27;20175;-45
2022/03/20 10:17:30;;;;;;;;;;;21.70;35.90;;;;;;6310322;27;19923;-47
2022/03/20 10:20:34;;;;;;;;;;;22.10;36.20;;;;;;6293345;27;20198;-50
2022/03/20 10:23:36;;;;;;;;;;;21.80;35.80;;;;;;6293068;27;20217;-47
2022/03/20 10:26:38;;;;;;;;;;;22.30;36.10;;;;;;6306918;27;20319;-50
2022/03/20 10:29:48;;;;;;;;;;;21.90;35.70;;;;;;6315891;27;20041;-50
2022/03/20 10:32:50;;;;;;;;;;;22.50;35.90;;;;;;6290062;27;19931;-48
2022/03/20 10:36:07;;;;;;;;;;;22.40;35.90;;;;;;6308508;27;20021;-47
2022/03/20 10:39:09;;;;;;;;;;;22.40;35.70;;;;;;6302998;27;20111;-46
2022/03/20 10:42:11;;;;;;;;;;;22.00;35.50;;;;;;6317621;27;20842;-46
2022/03/20 10:45:12;;;;;;;;;;;23.00;35.80;;;;;;6319374;27;20354;-49
2022/03/20 10:48:14;;;;;;;;;;;22.10;35.40;;;;;;6316628;27;20475;-49
2022/03/20 10:51:25;;;;;;;;;;;22.10;35.40;;;;;;6315223;27;19931;-47
2022/03/20 10:54:38;;;;;;;;;;;22.10;35.30;;;;;;6280014;27;20227;-48
2022/03/20 10:57:39;;;;;;;;;;;22.40;35.60;;;;;;6311261;27;20361;-47
2022/03/20 11:00:45;;;;;;;;;;;22.50;35.70;;;;;;6315713;27;19965;-48
2022/03/20 11:03:47;;;;;;;;;;;22.40;35.40;;;;;;6314859;27;19931;-48
2022/03/20 11:06:50;;;;;;;;;;;23.00;35.90;;;;;;6314046;27;20109;-47
2022/03/20 11:09:52;;;;;;;;;;;22.30;35.40;;;;;;6312271;27;20075;-49
2022/03/20 11:12:57;;;;;;;;;;;22.40;35.40;;;;;;6302346;27;20344;-49
2022/03/20 11:15:59;;;;;;;;;;;22.60;35.60;;;;;;6304450;27;20168;-49
2022/03/20 11:19:03;;;;;;;;;;;22.30;35.40;;;;;;6313571;27;20008;-47
2022/03/20 11:22:05;;;;;;;;;;;22.70;35.50;;;;;;6297317;27;20260;-46
2022/03/20 11:25:07;;;;;;;;;;;22.80;35.40;;;;;;6315731;27;20192;-50
2022/03/20 11:28:10;;;;;;;;;;;22.80;35.40;;;;;;6315144;27;20812;-47
2022/03/20 11:31:12;;;;;;;;;;;22.60;35.30;;;;;;6316461;27;20171;-50
2022/03/20 11:34:14;;;;;;;;;;;22.70;35.40;;;;;;6315434;27;20160;-47
2022/03/20 11:37:16;;;;;;;;;;;22.80;35.40;;;;;;6306478;27;20164;-48
2022/03/20 11:40:20;;;;;;;;;;;22.50;35.30;;;;;;6311594;27;19990;-47
2022/03/20 11:43:23;;;;;;;;;;;22.90;35.30;;;;;;6313801;27;20031;-47
2022/03/20 11:46:28;;;;;;;;;;;23.00;35.50;;;;;;6315527;27;19927;-48
2022/03/20 11:49:30;;;;;;;;;;;22.80;35.40;;;;;;6313550;27;19949;-49
2022/03/20 11:52:44;;;;;;;;;;;23.10;35.30;;;;;;6313817;27;20046;-50
2022/03/20 11:55:50;;;;;;;;;;;22.70;35.20;;;;;;6320509;27;19931;-49
2022/03/20 11:58:51;;;;;;;;;;;22.70;35.10;;;;;;6321184;27;20153;-49
2022/03/20 12:02:01;;;;;;;;;;;22.80;35.30;;;;;;6320367;27;19931;-46
2022/03/20 12:05:03;;;;;;;;;;;22.40;34.90;;;;;;6306414;27;19935;-52
2022/03/20 12:08:09;;;;;;;;;;;23.00;35.30;;;;;;6321192;27;19995;-49
2022/03/20 12:11:22;;;;;;;;;;;23.00;35.20;;;;;;6303737;27;20457;-46
2022/03/20 12:14:28;;;;;;;;;;;22.50;34.90;;;;;;6303505;27;20050;-49
2022/03/20 12:17:44;;;;;;;;;;;22.70;35.10;;;;;;6315445;27;20232;-48
2022/03/20 12:21:00;;;;;;;;;;;23.10;35.20;;;;;;6300850;27;20079;-48
2022/03/20 12:24:02;;;;;;;;;;;23.00;35.20;;;;;;6284790;27;20277;-49
2022/03/20 12:27:18;;;;;;;;;;;22.70;35.20;;;;;;6316038;27;20188;-48
2022/03/20 12:30:35;;;;;;;;;;;23.10;35.20;;;;;;6304153;27;20040;-49
2022/03/20 12:33:36;;;;;;;;;;;22.90;35.70;;;;;;6303250;27;20785;-47
2022/03/20 12:36:39;;;;;;;;;;;22.90;35.00;;;;;;6315107;27;19933;-47
2022/03/20 12:39:49;;;;;;;;;;;23.20;35.30;;;;;;6318413;27;19927;-46
2022/03/20 12:42:58;;;;;;;;;;;22.60;34.90;;;;;;6310529;27;20264;-49
2022/03/20 12:46:00;;;;;;;;;;;22.70;34.90;;;;;;6310131;27;20396;-45
2022/03/20 12:49:02;;;;;;;;;;;22.80;35.10;;;;;;6314141;27;19939;-48
2022/03/20 12:52:04;;;;;;;;;;;22.60;34.90;;;;;;6316388;27;19939;-46
2022/03/20 12:55:08;;;;;;;;;;;23.00;35.20;;;;;;6317797;27;20302;-47
2022/03/20 12:58:14;;;;;;;;;;;23.00;35.30;;;;;;6300291;27;19930;-47
2022/03/20 13:01:16;;;;;;;;;;;22.70;35.60;;;;;;6300345;27;20301;-48
2022/03/20 13:04:18;;;;;;;;;;;23.10;35.40;;;;;;6285832;27;20248;-48
2022/03/20 13:07:22;;;;;;;;;;;23.00;35.10;;;;;;6294960;27;20680;-47
2022/03/20 13:10:25;;;;;;;;;;;22.80;34.40;;;;;;6308284;27;20583;-45
2022/03/20 13:13:42;;;;;;;;;;;23.10;35.20;;;;;;6302156;27;20069;-47
2022/03/20 13:16:49;;;;;;;;;;;23.40;35.50;;;;;;6313419;27;19931;-46
2022/03/20 13:19:54;;;;;;;;;;;22.90;35.00;;;;;;6316969;27;20107;-48
2022/03/20 13:22:56;;;;;;;;;;;22.60;35.10;;;;;;6302267;27;21162;-49
2022/03/20 13:25:58;;;;;;;;;;;22.70;35.00;;;;;;6305817;27;19926;-47
2022/03/20 13:28:59;;;;;;;;;;;23.20;35.20;;;;;;6315276;27;20259;-45
2022/03/20 13:32:03;;;;;;;;;;;23.20;35.40;;;;;;6315157;27;20180;-45
2022/03/20 13:35:05;;;;;;;;;;;23.20;35.10;;;;;;6296181;27;20466;-45
2022/03/20 13:38:07;;;;;;;;;;;23.00;35.20;;;;;;6312645;27;19939;-46
2022/03/20 13:41:09;;;;;;;;;;;23.60;35.50;;;;;;6312650;27;20215;-46
2022/03/20 13:44:11;;;;;;;;;;;23.20;35.30;;;;;;6294772;27;20249;-48
2022/03/20 13:47:13;;;;;;;;;;;22.60;35.00;;;;;;6307701;27;20059;-46
2022/03/20 13:50:15;;;;;;;;;;;22.50;35.00;;;;;;6313296;27;20749;-46
2022/03/20 13:53:25;;;;;;;;;;;22.90;35.10;;;;;;6312833;27;20613;-45
2022/03/20 13:56:32;;;;;;;;;;;23.30;35.30;;;;;;6311088;27;20502;-49
2022/03/20 13:59:46;;;;;;;;;;;22.90;35.40;;;;;;6308033;27;20308;-47
2022/03/20 14:02:50;;;;;;;;;;;22.90;35.00;;;;;;6294960;27;20316;-46
2022/03/20 14:05:52;;;;;;;;;;;22.70;35.10;;;;;;6293932;27;19927;-48
2022/03/20 14:08:55;;;;;;;;;;;23.00;35.30;;;;;;6288727;27;20089;-46
2022/03/20 14:11:56;;;;;;;;;;;23.10;35.40;;;;;;6308577;27;20258;-46
2022/03/20 14:15:09;;;;;;;;;;;23.40;35.50;;;;;;6312958;27;20462;-48
2022/03/20 14:18:16;;;;;;;;;;;22.80;35.70;;;;;;6312628;27;20292;-50
2022/03/20 14:21:19;;;;;;;;;;;22.80;35.30;;;;;;6313034;27;20472;-51
2022/03/20 14:24:21;;;;;;;;;;;22.80;35.20;;;;;;6290926;27;20576;-48
2022/03/20 14:27:26;;;;;;;;;;;23.30;35.50;;;;;;6311020;27;19938;-45
2022/03/20 14:40:16;;;;;;;;;;;23.10;35.50;;;;;;6311297;27;19927;-49
2022/03/20 14:43:21;;;;;;;;;;;23.40;35.60;;;;;;6297779;27;19931;-49
2022/03/20 14:46:23;;;;;;;;;;;22.60;35.10;;;;;;6302975;27;20201;-46
2022/03/20 14:49:25;;;;;;;;;;;23.20;35.70;;;;;;6310573;27;19937;-48
2022/03/20 14:52:27;;;;;;;;;;;22.90;35.30;;;;;;6305634;27;20856;-45
2022/03/20 14:55:29;;;;;;;;;;;22.90;35.50;;;;;;6302704;27;19934;-45
2022/03/20 14:58:30;;;;;;;;;;;23.20;35.50;;;;;;6307611;27;20557;-48
2022/03/20 15:01:31;;;;;;;;;;;22.70;35.40;;;;;;6309317;27;19957;-48
2022/03/20 15:04:34;;;;;;;;;;;23.10;35.70;;;;;;6290800;27;19937;-46
2022/03/20 15:07:40;;;;;;;;;;;23.00;35.50;;;;;;6309606;27;19934;-47
2022/03/20 15:13:59;;;;;;;;;;;23.30;35.60;;;;;;6311159;27;20239;-48
2022/03/20 15:17:00;;;;;;;;;;;22.80;35.30;;;;;;6311390;27;19927;-47
2022/03/20 15:20:02;;;;;;;;;;;22.70;35.30;;;;;;6307798;27;20355;-46
2022/03/20 15:23:04;;;;;;;;;;;22.90;35.30;;;;;;6297197;27;20584;-47
2022/03/20 15:26:06;;;;;;;;;;;22.60;35.30;;;;;;6296657;27;20129;-48
2022/03/20 15:29:07;;;;;;;;;;;23.00;35.40;;;;;;6313400;27;19982;-47
2022/03/20 15:32:09;;;;;;;;;;;22.90;35.40;;;;;;6301439;27;20303;-47
2022/03/20 15:35:11;;;;;;;;;;;23.90;35.80;;;;;;6299405;27;19931;-46
2022/03/20 15:38:12;;;;;;;;;;;22.80;35.30;;;;;;6316314;27;20264;-47
2022/03/20 15:41:15;;;;;;;;;;;22.70;35.10;;;;;;6313853;27;20124;-49
2022/03/20 15:44:16;;;;;;;;;;;23.40;35.50;;;;;;6297218;27;20406;-47
2022/03/20 15:47:18;;;;;;;;;;;23.00;35.60;;;;;;6308521;27;20094;-48
2022/03/20 15:50:20;;;;;;;;;;;23.30;35.60;;;;;;6317153;27;20027;-46
2022/03/20 15:53:22;;;;;;;;;;;23.10;35.60;;;;;;6317096;27;20041;-48
2022/03/20 15:56:43;;;;;;;;;;;22.90;35.50;;;;;;6316278;27;20341;-52
2022/03/20 15:59:46;;;;;;;;;;;22.90;35.50;;;;;;6319865;27;20279;-48
2022/03/20 16:02:48;;;;;;;;;;;22.80;35.50;;;;;;6315830;27;20182;-49
2022/03/20 16:06:03;;;;;;;;;;;23.40;35.70;;;;;;6313394;27;20069;-46
2022/03/20 16:09:05;;;;;;;;;;;23.10;35.50;;;;;;6296599;27;19937;-47
2022/03/20 16:12:27;;;;;;;;;;;23.20;35.80;;;;;;6298887;27;20430;-51
2022/03/20 16:15:29;;;;;;;;;;;22.90;35.50;;;;;;6293731;27;19959;-46
2022/03/20 16:18:35;;;;;;;;;;;23.10;36.20;;;;;;6308522;27;20429;-46
2022/03/20 16:21:36;;;;;;;;;;;23.50;35.90;;;;;;6311987;27;19931;-48
2022/03/20 16:31:11;;;;;;;;;;;22.70;35.30;;;;;;6316544;27;19939;-47
2022/03/20 16:34:13;;;;;;;;;;;23.20;35.70;;;;;;6289202;27;20799;-48
2022/03/20 16:37:15;;;;;;;;;;;23.20;35.70;;;;;;6318135;27;20230;-51
2022/03/20 16:40:16;;;;;;;;;;;22.90;35.50;;;;;;6312623;27;20438;-47
2022/03/20 16:43:18;;;;;;;;;;;23.20;35.70;;;;;;6316110;27;20530;-46
2022/03/20 16:46:19;;;;;;;;;;;23.20;35.60;;;;;;6306536;27;19981;-50
2022/03/20 16:49:21;;;;;;;;;;;23.20;35.80;;;;;;6314814;27;19931;-50
2022/03/20 16:52:22;;;;;;;;;;;22.80;35.60;;;;;;6314570;27;20201;-46
2022/03/20 16:55:24;;;;;;;;;;;23.10;35.80;;;;;;6307069;27;20191;-46
2022/03/20 16:58:26;;;;;;;;;;;22.70;35.50;;;;;;6311664;27;20260;-47
2022/03/20 17:01:27;;;;;;;;;;;23.30;35.80;;;;;;6298349;27;20207;-49
2022/03/20 17:04:29;;;;;;;;;;;23.20;35.90;;;;;;6308032;27;19931;-48
2022/03/20 17:07:30;;;;;;;;;;;22.90;35.70;;;;;;6314428;27;20046;-47
2022/03/20 17:10:32;;;;;;;;;;;23.00;35.70;;;;;;6312083;27;20204;-46
2022/03/20 17:13:35;;;;;;;;;;;23.20;35.80;;;;;;6292252;27;19931;-45
2022/03/20 17:16:37;;;;;;;;;;;23.40;35.90;;;;;;6304219;27;20029;-47
2022/03/20 17:19:38;;;;;;;;;;;23.20;35.80;;;;;;6311342;27;20083;-50
2022/03/20 17:22:40;;;;;;;;;;;22.80;35.60;;;;;;6312029;27;21180;-48
2022/03/20 17:25:41;;;;;;;;;;;23.20;35.90;;;;;;6309425;27;20124;-47
2022/03/20 17:28:43;;;;;;;;;;;23.10;35.80;;;;;;6313525;27;20347;-50
2022/03/20 17:31:45;;;;;;;;;;;22.80;35.60;;;;;;6293296;27;20061;-48
2022/03/20 17:34:47;;;;;;;;;;;23.10;35.90;;;;;;6306005;27;20033;-49
2022/03/20 17:37:48;;;;;;;;;;;23.10;36.00;;;;;;6309122;27;20145;-48
2022/03/20 17:40:49;;;;;;;;;;;23.00;35.90;;;;;;6316294;27;21313;-47
2022/03/20 17:43:51;;;;;;;;;;;23.00;35.70;;;;;;6302360;27;20332;-47
2022/03/20 17:46:53;;;;;;;;;;;23.10;35.80;;;;;;6311744;27;19931;-46
2022/03/20 17:49:55;;;;;;;;;;;23.10;35.90;;;;;;6316947;27;20742;-48
2022/03/20 17:52:56;;;;;;;;;;;23.20;35.80;;;;;;6308490;27;20373;-47
2022/03/20 17:55:58;;;;;;;;;;;22.90;35.80;;;;;;6303735;27;19939;-48
2022/03/20 17:59:23;;;;;;;;;;;23.20;35.80;;;;;;6292879;27;20049;-49
2022/03/20 18:08:49;;;;;;;;;;;23.50;36.10;;;;;;6315248;27;20046;-46
2022/03/20 18:11:51;;;;;;;;;;;23.30;36.00;;;;;;6313291;27;20355;-45
2022/03/20 18:14:54;;;;;;;;;;;22.90;35.80;;;;;;6314816;27;20713;-46
2022/03/20 18:17:56;;;;;;;;;;;23.50;36.20;;;;;;6313397;27;19931;-48
2022/03/20 18:20:58;;;;;;;;;;;22.80;35.90;;;;;;6317340;27;19935;-47
2022/03/20 18:23:59;;;;;;;;;;;23.10;36.10;;;;;;6299563;27;20551;-46
2022/03/20 18:27:01;;;;;;;;;;;23.20;36.20;;;;;;6325842;27;19923;-47
2022/03/20 18:30:04;;;;;;;;;;;22.80;35.90;;;;;;6323181;27;20046;-50
2022/03/20 18:33:06;;;;;;;;;;;23.30;36.10;;;;;;6326620;27;19938;-45
2022/03/20 18:36:09;;;;;;;;;;;23.10;36.10;;;;;;6308882;27;19931;-48
2022/03/20 18:39:11;;;;;;;;;;;23.00;36.10;;;;;;6320752;27;19938;-45
2022/03/20 18:42:14;;;;;;;;;;;22.80;36.00;;;;;;6327241;27;19928;-49
2022/03/20 18:45:16;;;;;;;;;;;23.10;36.10;;;;;;6323456;27;19924;-51
2022/03/20 18:48:17;;;;;;;;;;;23.50;36.30;;;;;;6325125;27;19926;-49